sensor_id;sensor_type;location;lat;lon;timestamp;temperature;humidity
5128;DHT22;2582;48.770;9.190;2023-07-08T00:01:23;23.00;61.20
5128;DHT22;2582;48.770;9.190;2023-07-08T00:03:49;23.10;61.10
5128;DHT22;2582;48.770;9.190;2023-07-08T00:06:18;23.10;61.00
5128;DHT22;2582;48.770;9.190;2023-07-08T00:08:44;23.10;61.10
5128;DHT22;2582;48.770;9.190;2023-07-08T00:11:11;23.00;61.50
5128;DHT22;2582;48.770;9.190;2023-07-08T00:13:37;23.00;61.60
5128;DHT22;2582;48.770;9.190;2023-07-08T00:16:03;22.90;61.60
5128;DHT22;2582;48.770;9.190;2023-07-08T00:18:29;22.90;61.70
5128;DHT22;2582;48.770;9.190;2023-07-08T00:20:54;22.90;61.70
5128;DHT22;2582;48.770;9.190;2023-07-08T00:23:20;22.90;62.10
5128;DHT22;2582;48.770;9.190;2023-07-08T00:25:47;22.80;62.30
5128;DHT22;2582;48.770;9.190;2023-07-08T00:28:18;22.70;62.60
5128;DHT22;2582;48.770;9.190;2023-07-08T00:30:46;22.70;62.70
5128;DHT22;2582;48.770;9.190;2023-07-08T00:33:12;22.70;62.90
5128;DHT22;2582;48.770;9.190;2023-07-08T00:35:40;22.80;62.80
5128;DHT22;2582;48.770;9.190;2023-07-08T00:38:26;22.80;62.80
5128;DHT22;2582;48.770;9.190;2023-07-08T00:40:58;22.80;62.70
5128;DHT22;2582;48.770;9.190;2023-07-08T00:43:34;22.70;63.20
5128;DHT22;2582;48.770;9.190;2023-07-08T00:51:34;22.70;62.90
5128;DHT22;2582;48.770;9.190;2023-07-08T00:54:00;22.60;63.30
5128;DHT22;2582;48.770;9.190;2023-07-08T00:56:30;22.60;63.10
5128;DHT22;2582;48.770;9.190;2023-07-08T00:58:58;22.70;63.70
5128;DHT22;2582;48.770;9.190;2023-07-08T01:01:25;22.60;63.60
5128;DHT22;2582;48.770;9.190;2023-07-08T01:04:02;22.60;63.80
5128;DHT22;2582;48.770;9.190;2023-07-08T01:06:33;22.40;64.20
5128;DHT22;2582;48.770;9.190;2023-07-08T01:09:02;22.30;64.50
5128;DHT22;2582;48.770;9.190;2023-07-08T01:11:30;22.30;65.40
5128;DHT22;2582;48.770;9.190;2023-07-08T01:13:57;22.20;65.10
5128;DHT22;2582;48.770;9.190;2023-07-08T01:16:24;22.20;65.30
5128;DHT22;2582;48.770;9.190;2023-07-08T01:18:49;22.20;64.70
5128;DHT22;2582;48.770;9.190;2023-07-08T01:21:36;22.30;64.60
5128;DHT22;2582;48.770;9.190;2023-07-08T01:24:05;22.50;65.20
5128;DHT22;2582;48.770;9.190;2023-07-08T01:26:33;22.50;65.40
5128;DHT22;2582;48.770;9.190;2023-07-08T01:29:01;22.60;65.30
5128;DHT22;2582;48.770;9.190;2023-07-08T01:31:28;22.60;65.80
5128;DHT22;2582;48.770;9.190;2023-07-08T01:33:54;22.60;65.80
5128;DHT22;2582;48.770;9.190;2023-07-08T01:36:20;22.60;65.70
5128;DHT22;2582;48.770;9.190;2023-07-08T01:38:46;22.60;66.00
5128;DHT22;2582;48.770;9.190;2023-07-08T01:41:14;22.50;66.40
5128;DHT22;2582;48.770;9.190;2023-07-08T01:43:40;22.40;66.60
5128;DHT22;2582;48.770;9.190;2023-07-08T01:46:15;22.40;66.50
5128;DHT22;2582;48.770;9.190;2023-07-08T01:48:45;22.30;66.10
5128;DHT22;2582;48.770;9.190;2023-07-08T01:51:12;22.20;66.70
5128;DHT22;2582;48.770;9.190;2023-07-08T01:53:40;22.10;66.40
5128;DHT22;2582;48.770;9.190;2023-07-08T01:56:06;22.10;66.10
5128;DHT22;2582;48.770;9.190;2023-07-08T01:58:33;22.10;67.20
5128;DHT22;2582;48.770;9.190;2023-07-08T02:00:58;22.10;67.40
5128;DHT22;2582;48.770;9.190;2023-07-08T02:03:25;22.10;67.70
5128;DHT22;2582;48.770;9.190;2023-07-08T02:05:51;22.10;67.90
5128;DHT22;2582;48.770;9.190;2023-07-08T02:08:17;22.10;68.10
5128;DHT22;2582;48.770;9.190;2023-07-08T02:10:48;22.10;68.30
5128;DHT22;2582;48.770;9.190;2023-07-08T02:13:13;22.00;68.20
5128;DHT22;2582;48.770;9.190;2023-07-08T02:15:39;21.90;68.60
5128;DHT22;2582;48.770;9.190;2023-07-08T02:18:05;21.90;69.10
5128;DHT22;2582;48.770;9.190;2023-07-08T02:20:30;21.80;69.30
5128;DHT22;2582;48.770;9.190;2023-07-08T02:22:56;21.70;68.90
5128;DHT22;2582;48.770;9.190;2023-07-08T02:25:21;21.60;68.60
5128;DHT22;2582;48.770;9.190;2023-07-08T02:27:47;21.60;69.00
5128;DHT22;2582;48.770;9.190;2023-07-08T02:30:12;21.60;69.80
5128;DHT22;2582;48.770;9.190;2023-07-08T02:32:38;21.60;69.60
5128;DHT22;2582;48.770;9.190;2023-07-08T02:35:05;21.60;70.00
5128;DHT22;2582;48.770;9.190;2023-07-08T02:37:31;21.60;70.00
5128;DHT22;2582;48.770;9.190;2023-07-08T02:39:58;21.70;69.50
5128;DHT22;2582;48.770;9.190;2023-07-08T02:42:23;21.70;69.70
5128;DHT22;2582;48.770;9.190;2023-07-08T02:44:49;21.80;69.60
5128;DHT22;2582;48.770;9.190;2023-07-08T02:47:14;21.80;70.00
5128;DHT22;2582;48.770;9.190;2023-07-08T02:49:40;21.70;70.10
5128;DHT22;2582;48.770;9.190;2023-07-08T02:52:06;21.80;70.00
5128;DHT22;2582;48.770;9.190;2023-07-08T02:54:32;21.80;69.80
5128;DHT22;2582;48.770;9.190;2023-07-08T02:56:57;21.80;69.90
5128;DHT22;2582;48.770;9.190;2023-07-08T02:59:23;21.80;69.50
5128;DHT22;2582;48.770;9.190;2023-07-08T03:01:48;21.80;69.90
5128;DHT22;2582;48.770;9.190;2023-07-08T03:04:15;21.70;70.00
5128;DHT22;2582;48.770;9.190;2023-07-08T03:06:42;21.70;70.50
5128;DHT22;2582;48.770;9.190;2023-07-08T03:09:08;21.70;70.50
5128;DHT22;2582;48.770;9.190;2023-07-08T03:11:34;21.70;70.20
5128;DHT22;2582;48.770;9.190;2023-07-08T03:14:00;21.80;70.50
5128;DHT22;2582;48.770;9.190;2023-07-08T03:16:26;21.80;70.40
5128;DHT22;2582;48.770;9.190;2023-07-08T03:18:51;21.70;70.60
5128;DHT22;2582;48.770;9.190;2023-07-08T03:21:18;21.70;71.30
5128;DHT22;2582;48.770;9.190;2023-07-08T03:23:44;21.80;71.50
5128;DHT22;2582;48.770;9.190;2023-07-08T03:26:22;21.80;71.60
5128;DHT22;2582;48.770;9.190;2023-07-08T03:28:48;21.80;69.90
5128;DHT22;2582;48.770;9.190;2023-07-08T03:31:15;21.60;70.30
5128;DHT22;2582;48.770;9.190;2023-07-08T03:33:40;21.60;71.30
5128;DHT22;2582;48.770;9.190;2023-07-08T03:36:15;21.70;72.00
5128;DHT22;2582;48.770;9.190;2023-07-08T03:38:49;21.70;70.60
5128;DHT22;2582;48.770;9.190;2023-07-08T03:41:14;21.60;70.50
5128;DHT22;2582;48.770;9.190;2023-07-08T03:43:40;21.40;71.10
5128;DHT22;2582;48.770;9.190;2023-07-08T03:46:11;21.50;71.40
5128;DHT22;2582;48.770;9.190;2023-07-08T03:48:37;21.60;71.10
5128;DHT22;2582;48.770;9.190;2023-07-08T03:51:03;21.60;70.70
5128;DHT22;2582;48.770;9.190;2023-07-08T03:53:28;21.60;71.10
5128;DHT22;2582;48.770;9.190;2023-07-08T03:55:54;21.60;71.60
5128;DHT22;2582;48.770;9.190;2023-07-08T03:58:20;21.70;71.90
5128;DHT22;2582;48.770;9.190;2023-07-08T04:00:45;21.70;71.90
5128;DHT22;2582;48.770;9.190;2023-07-08T04:03:11;21.60;72.80
5128;DHT22;2582;48.770;9.190;2023-07-08T04:05:37;21.40;73.80
5128;DHT22;2582;48.770;9.190;2023-07-08T04:08:03;21.60;73.90
5128;DHT22;2582;48.770;9.190;2023-07-08T04:10:28;21.50;73.30
5128;DHT22;2582;48.770;9.190;2023-07-08T04:12:54;21.40;73.80
5128;DHT22;2582;48.770;9.190;2023-07-08T04:15:19;21.20;74.40
5128;DHT22;2582;48.770;9.190;2023-07-08T04:17:51;21.20;75.10
5128;DHT22;2582;48.770;9.190;2023-07-08T04:20:18;21.30;75.60
5128;DHT22;2582;48.770;9.190;2023-07-08T04:22:44;21.40;75.70
5128;DHT22;2582;48.770;9.190;2023-07-08T04:25:11;21.40;75.80
5128;DHT22;2582;48.770;9.190;2023-07-08T04:27:38;21.40;75.20
5128;DHT22;2582;48.770;9.190;2023-07-08T04:30:05;21.30;75.20
5128;DHT22;2582;48.770;9.190;2023-07-08T04:32:31;21.50;75.10
5128;DHT22;2582;48.770;9.190;2023-07-08T04:34:57;21.80;75.50
5128;DHT22;2582;48.770;9.190;2023-07-08T04:37:22;21.90;75.10
5128;DHT22;2582;48.770;9.190;2023-07-08T04:39:48;22.00;74.90
5128;DHT22;2582;48.770;9.190;2023-07-08T04:42:14;22.00;75.10
5128;DHT22;2582;48.770;9.190;2023-07-08T04:44:44;22.10;75.90
5128;DHT22;2582;48.770;9.190;2023-07-08T04:47:10;22.10;75.80
5128;DHT22;2582;48.770;9.190;2023-07-08T04:49:37;22.20;76.80
5128;DHT22;2582;48.770;9.190;2023-07-08T04:52:03;22.30;76.30
5128;DHT22;2582;48.770;9.190;2023-07-08T04:54:29;22.30;76.90
5128;DHT22;2582;48.770;9.190;2023-07-08T04:56:55;22.40;76.20
5128;DHT22;2582;48.770;9.190;2023-07-08T04:59:22;22.60;76.20
5128;DHT22;2582;48.770;9.190;2023-07-08T05:01:49;22.70;76.50
5128;DHT22;2582;48.770;9.190;2023-07-08T05:04:16;22.70;76.60
5128;DHT22;2582;48.770;9.190;2023-07-08T05:06:43;22.80;77.30
5128;DHT22;2582;48.770;9.190;2023-07-08T05:09:09;22.90;77.80
5128;DHT22;2582;48.770;9.190;2023-07-08T05:11:35;22.90;77.80
5128;DHT22;2582;48.770;9.190;2023-07-08T05:14:02;23.00;77.50
5128;DHT22;2582;48.770;9.190;2023-07-08T05:16:27;23.10;78.40
5128;DHT22;2582;48.770;9.190;2023-07-08T05:18:53;23.20;76.70
5128;DHT22;2582;48.770;9.190;2023-07-08T05:21:19;23.40;77.00
5128;DHT22;2582;48.770;9.190;2023-07-08T05:23:46;23.60;77.50
5128;DHT22;2582;48.770;9.190;2023-07-08T05:26:15;23.70;75.30
5128;DHT22;2582;48.770;9.190;2023-07-08T05:28:41;24.00;75.20
5128;DHT22;2582;48.770;9.190;2023-07-08T05:31:07;24.30;76.80
5128;DHT22;2582;48.770;9.190;2023-07-08T05:33:33;24.40;74.30
5128;DHT22;2582;48.770;9.190;2023-07-08T05:35:59;24.40;72.10
5128;DHT22;2582;48.770;9.190;2023-07-08T05:38:25;24.30;72.70
5128;DHT22;2582;48.770;9.190;2023-07-08T05:40:54;24.60;72.00
5128;DHT22;2582;48.770;9.190;2023-07-08T05:43:20;24.80;71.50
5128;DHT22;2582;48.770;9.190;2023-07-08T05:45:46;25.10;73.70
5128;DHT22;2582;48.770;9.190;2023-07-08T05:48:12;25.20;74.60
5128;DHT22;2582;48.770;9.190;2023-07-08T05:50:39;25.30;72.40
5128;DHT22;2582;48.770;9.190;2023-07-08T05:53:05;25.40;72.70
5128;DHT22;2582;48.770;9.190;2023-07-08T05:55:32;25.40;73.30
5128;DHT22;2582;48.770;9.190;2023-07-08T05:57:57;25.50;72.80
5128;DHT22;2582;48.770;9.190;2023-07-08T06:00:23;25.50;73.60
5128;DHT22;2582;48.770;9.190;2023-07-08T06:02:49;25.60;72.20
5128;DHT22;2582;48.770;9.190;2023-07-08T06:05:15;25.70;73.40
5128;DHT22;2582;48.770;9.190;2023-07-08T06:07:40;25.70;74.00
5128;DHT22;2582;48.770;9.190;2023-07-08T06:10:07;25.80;74.40
5128;DHT22;2582;48.770;9.190;2023-07-08T06:12:33;25.70;73.60
5128;DHT22;2582;48.770;9.190;2023-07-08T06:14:58;25.70;73.80
5128;DHT22;2582;48.770;9.190;2023-07-08T06:17:24;25.60;72.60
5128;DHT22;2582;48.770;9.190;2023-07-08T06:19:50;25.70;72.60
5128;DHT22;2582;48.770;9.190;2023-07-08T06:22:16;25.90;71.60
5128;DHT22;2582;48.770;9.190;2023-07-08T06:24:41;26.10;70.00
5128;DHT22;2582;48.770;9.190;2023-07-08T06:27:07;26.30;70.30
5128;DHT22;2582;48.770;9.190;2023-07-08T06:29:34;26.50;69.30
5128;DHT22;2582;48.770;9.190;2023-07-08T06:32:00;26.70;68.70
5128;DHT22;2582;48.770;9.190;2023-07-08T06:34:26;26.90;67.00
5128;DHT22;2582;48.770;9.190;2023-07-08T06:36:51;27.00;68.40
5128;DHT22;2582;48.770;9.190;2023-07-08T06:39:18;27.10;69.90
5128;DHT22;2582;48.770;9.190;2023-07-08T06:41:43;26.90;67.30
5128;DHT22;2582;48.770;9.190;2023-07-08T06:44:10;26.90;65.10
5128;DHT22;2582;48.770;9.190;2023-07-08T06:46:36;26.90;65.70
5128;DHT22;2582;48.770;9.190;2023-07-08T06:49:01;26.90;66.00
5128;DHT22;2582;48.770;9.190;2023-07-08T06:51:27;27.10;67.50
5128;DHT22;2582;48.770;9.190;2023-07-08T06:53:53;27.30;66.20
5128;DHT22;2582;48.770;9.190;2023-07-08T06:56:19;27.40;65.80
5128;DHT22;2582;48.770;9.190;2023-07-08T06:58:45;27.40;65.20
5128;DHT22;2582;48.770;9.190;2023-07-08T07:01:10;27.20;65.80
5128;DHT22;2582;48.770;9.190;2023-07-08T07:03:36;27.00;66.30
5128;DHT22;2582;48.770;9.190;2023-07-08T07:06:02;27.10;65.80
5128;DHT22;2582;48.770;9.190;2023-07-08T07:08:27;27.20;67.80
5128;DHT22;2582;48.770;9.190;2023-07-08T07:10:53;27.10;67.30
5128;DHT22;2582;48.770;9.190;2023-07-08T07:13:19;26.90;66.80
5128;DHT22;2582;48.770;9.190;2023-07-08T07:15:44;26.80;67.90
5128;DHT22;2582;48.770;9.190;2023-07-08T07:18:10;26.50;68.20
5128;DHT22;2582;48.770;9.190;2023-07-08T07:20:37;26.60;68.90
5128;DHT22;2582;48.770;9.190;2023-07-08T07:23:03;27.00;69.80
5128;DHT22;2582;48.770;9.190;2023-07-08T07:25:29;27.20;68.00
5128;DHT22;2582;48.770;9.190;2023-07-08T07:27:55;27.10;68.00
5128;DHT22;2582;48.770;9.190;2023-07-08T07:30:20;27.00;68.70
5128;DHT22;2582;48.770;9.190;2023-07-08T07:32:46;27.10;69.00
5128;DHT22;2582;48.770;9.190;2023-07-08T07:35:13;27.20;68.90
5128;DHT22;2582;48.770;9.190;2023-07-08T07:37:40;27.60;69.40
5128;DHT22;2582;48.770;9.190;2023-07-08T07:40:08;27.70;69.70
5128;DHT22;2582;48.770;9.190;2023-07-08T07:42:42;27.70;69.40
5128;DHT22;2582;48.770;9.190;2023-07-08T07:45:08;27.70;68.70
5128;DHT22;2582;48.770;9.190;2023-07-08T07:47:34;27.70;69.00
5128;DHT22;2582;48.770;9.190;2023-07-08T07:50:00;27.80;68.40
5128;DHT22;2582;48.770;9.190;2023-07-08T07:52:27;27.90;68.70
5128;DHT22;2582;48.770;9.190;2023-07-08T07:54:53;27.90;69.10
5128;DHT22;2582;48.770;9.190;2023-07-08T07:57:19;28.10;68.60
5128;DHT22;2582;48.770;9.190;2023-07-08T07:59:46;28.20;67.50
5128;DHT22;2582;48.770;9.190;2023-07-08T08:02:11;28.10;67.80
5128;DHT22;2582;48.770;9.190;2023-07-08T08:04:37;28.00;67.90
5128;DHT22;2582;48.770;9.190;2023-07-08T08:07:03;27.90;67.80
5128;DHT22;2582;48.770;9.190;2023-07-08T08:09:29;28.20;67.20
5128;DHT22;2582;48.770;9.190;2023-07-08T08:11:55;28.50;66.60
5128;DHT22;2582;48.770;9.190;2023-07-08T08:14:21;28.80;66.20
5128;DHT22;2582;48.770;9.190;2023-07-08T08:16:47;28.90;65.80
5128;DHT22;2582;48.770;9.190;2023-07-08T08:19:13;29.10;65.60
5128;DHT22;2582;48.770;9.190;2023-07-08T08:21:38;28.60;65.30
5128;DHT22;2582;48.770;9.190;2023-07-08T08:24:04;28.50;67.10
5128;DHT22;2582;48.770;9.190;2023-07-08T08:26:30;28.50;66.00
5128;DHT22;2582;48.770;9.190;2023-07-08T08:28:56;28.10;66.30
5128;DHT22;2582;48.770;9.190;2023-07-08T08:31:21;28.00;66.60
5128;DHT22;2582;48.770;9.190;2023-07-08T08:33:47;28.00;66.30
5128;DHT22;2582;48.770;9.190;2023-07-08T08:36:13;28.20;66.20
5128;DHT22;2582;48.770;9.190;2023-07-08T08:38:38;28.20;65.10
5128;DHT22;2582;48.770;9.190;2023-07-08T08:41:13;28.20;65.50
5128;DHT22;2582;48.770;9.190;2023-07-08T08:43:39;28.30;66.40
5128;DHT22;2582;48.770;9.190;2023-07-08T08:46:22;28.60;64.70
5128;DHT22;2582;48.770;9.190;2023-07-08T08:49:02;28.70;64.20
5128;DHT22;2582;48.770;9.190;2023-07-08T08:51:32;28.80;64.10
5128;DHT22;2582;48.770;9.190;2023-07-08T08:53:58;28.50;63.70
5128;DHT22;2582;48.770;9.190;2023-07-08T08:56:28;28.60;64.60
5128;DHT22;2582;48.770;9.190;2023-07-08T09:01:55;29.10;64.30
5128;DHT22;2582;48.770;9.190;2023-07-08T09:04:27;29.20;61.70
5128;DHT22;2582;48.770;9.190;2023-07-08T09:06:59;29.00;62.10
5128;DHT22;2582;48.770;9.190;2023-07-08T09:09:35;29.10;62.90
5128;DHT22;2582;48.770;9.190;2023-07-08T09:12:10;29.00;62.60
5128;DHT22;2582;48.770;9.190;2023-07-08T09:14:37;29.20;64.20
5128;DHT22;2582;48.770;9.190;2023-07-08T09:17:22;29.50;63.50
5128;DHT22;2582;48.770;9.190;2023-07-08T09:22:48;29.60;61.70
5128;DHT22;2582;48.770;9.190;2023-07-08T09:25:24;29.50;60.90
5128;DHT22;2582;48.770;9.190;2023-07-08T09:27:50;29.60;61.10
5128;DHT22;2582;48.770;9.190;2023-07-08T09:30:21;29.90;61.00
5128;DHT22;2582;48.770;9.190;2023-07-08T09:32:48;29.80;61.20
5128;DHT22;2582;48.770;9.190;2023-07-08T09:35:29;29.90;60.90
5128;DHT22;2582;48.770;9.190;2023-07-08T09:38:07;30.10;62.20
5128;DHT22;2582;48.770;9.190;2023-07-08T09:40:33;30.10;61.60
5128;DHT22;2582;48.770;9.190;2023-07-08T09:43:12;29.90;60.50
5128;DHT22;2582;48.770;9.190;2023-07-08T09:45:44;29.80;60.50
5128;DHT22;2582;48.770;9.190;2023-07-08T09:48:24;29.80;61.50
5128;DHT22;2582;48.770;9.190;2023-07-08T09:50:52;30.00;62.20
5128;DHT22;2582;48.770;9.190;2023-07-08T09:53:18;30.30;61.70
5128;DHT22;2582;48.770;9.190;2023-07-08T09:55:45;30.30;60.70
5128;DHT22;2582;48.770;9.190;2023-07-08T09:58:15;30.30;60.10
5128;DHT22;2582;48.770;9.190;2023-07-08T10:00:56;30.30;59.40
5128;DHT22;2582;48.770;9.190;2023-07-08T10:03:25;30.50;58.60
5128;DHT22;2582;48.770;9.190;2023-07-08T10:05:54;30.50;57.80
5128;DHT22;2582;48.770;9.190;2023-07-08T10:08:36;30.70;57.80
5128;DHT22;2582;48.770;9.190;2023-07-08T10:11:29;30.70;58.10
5128;DHT22;2582;48.770;9.190;2023-07-08T10:13:59;30.30;59.40
5128;DHT22;2582;48.770;9.190;2023-07-08T10:16:29;30.30;59.60
5128;DHT22;2582;48.770;9.190;2023-07-08T10:18:57;30.20;60.40
5128;DHT22;2582;48.770;9.190;2023-07-08T10:24:27;29.70;61.90
5128;DHT22;2582;48.770;9.190;2023-07-08T10:29:45;30.00;62.40
5128;DHT22;2582;48.770;9.190;2023-07-08T10:32:48;29.80;62.20
5128;DHT22;2582;48.770;9.190;2023-07-08T10:35:23;29.80;63.00
5128;DHT22;2582;48.770;9.190;2023-07-08T10:41:10;30.10;62.50
5128;DHT22;2582;48.770;9.190;2023-07-08T10:43:56;30.20;63.50
5128;DHT22;2582;48.770;9.190;2023-07-08T10:46:38;30.30;62.70
5128;DHT22;2582;48.770;9.190;2023-07-08T10:49:19;30.30;61.60
5128;DHT22;2582;48.770;9.190;2023-07-08T10:51:55;30.20;61.80
5128;DHT22;2582;48.770;9.190;2023-07-08T10:57:35;30.00;60.70
5128;DHT22;2582;48.770;9.190;2023-07-08T11:05:44;30.60;59.50
5128;DHT22;2582;48.770;9.190;2023-07-08T11:13:28;31.10;59.20
5128;DHT22;2582;48.770;9.190;2023-07-08T11:16:10;31.10;58.70
5128;DHT22;2582;48.770;9.190;2023-07-08T11:18:55;30.90;58.30
5128;DHT22;2582;48.770;9.190;2023-07-08T11:21:32;30.70;58.80
5128;DHT22;2582;48.770;9.190;2023-07-08T11:24:04;31.20;58.30
5128;DHT22;2582;48.770;9.190;2023-07-08T11:29:21;32.20;56.90
5128;DHT22;2582;48.770;9.190;2023-07-08T11:31:47;32.00;56.60
5128;DHT22;2582;48.770;9.190;2023-07-08T11:34:15;32.40;56.30
5128;DHT22;2582;48.770;9.190;2023-07-08T11:36:42;33.10;55.90
5128;DHT22;2582;48.770;9.190;2023-07-08T11:39:28;34.30;53.70
5128;DHT22;2582;48.770;9.190;2023-07-08T11:42:05;35.10;52.00
5128;DHT22;2582;48.770;9.190;2023-07-08T11:44:42;36.40;49.80
5128;DHT22;2582;48.770;9.190;2023-07-08T11:50:25;37.30;46.30
5128;DHT22;2582;48.770;9.190;2023-07-08T11:53:07;37.10;47.50
5128;DHT22;2582;48.770;9.190;2023-07-08T11:55:55;36.50;47.40
5128;DHT22;2582;48.770;9.190;2023-07-08T11:58:27;37.30;46.80
5128;DHT22;2582;48.770;9.190;2023-07-08T12:01:00;37.70;46.10
5128;DHT22;2582;48.770;9.190;2023-07-08T12:03:55;37.40;45.80
5128;DHT22;2582;48.770;9.190;2023-07-08T12:08:54;37.00;45.60
5128;DHT22;2582;48.770;9.190;2023-07-08T12:11:28;38.80;44.50
5128;DHT22;2582;48.770;9.190;2023-07-08T12:13:58;39.40;42.40
5128;DHT22;2582;48.770;9.190;2023-07-08T12:16:24;39.20;42.60
5128;DHT22;2582;48.770;9.190;2023-07-08T12:18:51;38.90;42.70
5128;DHT22;2582;48.770;9.190;2023-07-08T12:21:18;38.90;41.80
5128;DHT22;2582;48.770;9.190;2023-07-08T12:23:45;39.70;41.80
5128;DHT22;2582;48.770;9.190;2023-07-08T12:26:12;41.30;39.80
5128;DHT22;2582;48.770;9.190;2023-07-08T12:28:39;40.70;38.80
5128;DHT22;2582;48.770;9.190;2023-07-08T12:31:25;40.50;39.00
5128;DHT22;2582;48.770;9.190;2023-07-08T12:33:51;40.60;39.60
5128;DHT22;2582;48.770;9.190;2023-07-08T12:36:25;41.20;38.40
5128;DHT22;2582;48.770;9.190;2023-07-08T12:38:52;41.50;38.20
5128;DHT22;2582;48.770;9.190;2023-07-08T12:41:30;41.40;37.60
5128;DHT22;2582;48.770;9.190;2023-07-08T12:43:57;41.10;37.70
5128;DHT22;2582;48.770;9.190;2023-07-08T12:46:23;40.90;37.80
5128;DHT22;2582;48.770;9.190;2023-07-08T12:48:50;41.20;38.00
5128;DHT22;2582;48.770;9.190;2023-07-08T12:51:18;41.80;36.80
5128;DHT22;2582;48.770;9.190;2023-07-08T12:53:47;41.10;37.10
5128;DHT22;2582;48.770;9.190;2023-07-08T12:56:13;39.90;38.40
5128;DHT22;2582;48.770;9.190;2023-07-08T12:58:44;39.90;38.90
5128;DHT22;2582;48.770;9.190;2023-07-08T13:01:18;40.30;39.00
5128;DHT22;2582;48.770;9.190;2023-07-08T13:03:45;40.80;37.50
5128;DHT22;2582;48.770;9.190;2023-07-08T13:06:16;41.20;36.80
5128;DHT22;2582;48.770;9.190;2023-07-08T13:08:42;40.30;37.90
5128;DHT22;2582;48.770;9.190;2023-07-08T13:11:08;39.80;39.00
5128;DHT22;2582;48.770;9.190;2023-07-08T13:13:36;40.40;37.80
5128;DHT22;2582;48.770;9.190;2023-07-08T13:16:04;40.10;37.60
5128;DHT22;2582;48.770;9.190;2023-07-08T13:18:40;39.40;38.20
5128;DHT22;2582;48.770;9.190;2023-07-08T13:21:10;40.00;37.80
5128;DHT22;2582;48.770;9.190;2023-07-08T13:23:36;39.90;37.80
5128;DHT22;2582;48.770;9.190;2023-07-08T13:26:13;40.40;37.40
5128;DHT22;2582;48.770;9.190;2023-07-08T13:28:40;39.80;38.00
5128;DHT22;2582;48.770;9.190;2023-07-08T13:31:16;40.20;38.30
5128;DHT22;2582;48.770;9.190;2023-07-08T13:34:07;40.50;36.90
5128;DHT22;2582;48.770;9.190;2023-07-08T13:36:36;39.80;37.10
5128;DHT22;2582;48.770;9.190;2023-07-08T13:39:06;40.00;36.90
5128;DHT22;2582;48.770;9.190;2023-07-08T13:41:32;40.40;36.20
5128;DHT22;2582;48.770;9.190;2023-07-08T13:44:07;41.10;35.50
5128;DHT22;2582;48.770;9.190;2023-07-08T13:46:44;41.80;35.00
5128;DHT22;2582;48.770;9.190;2023-07-08T13:49:18;43.10;32.70
5128;DHT22;2582;48.770;9.190;2023-07-08T13:51:44;43.90;32.00
5128;DHT22;2582;48.770;9.190;2023-07-08T13:54:26;44.80;31.20
5128;DHT22;2582;48.770;9.190;2023-07-08T13:56:53;43.70;32.40
5128;DHT22;2582;48.770;9.190;2023-07-08T13:59:24;43.10;32.50
5128;DHT22;2582;48.770;9.190;2023-07-08T14:01:52;42.30;32.50
5128;DHT22;2582;48.770;9.190;2023-07-08T14:04:21;42.50;32.80
5128;DHT22;2582;48.770;9.190;2023-07-08T14:06:48;42.20;32.70
5128;DHT22;2582;48.770;9.190;2023-07-08T14:09:19;41.10;33.90
5128;DHT22;2582;48.770;9.190;2023-07-08T14:11:45;39.50;35.70
5128;DHT22;2582;48.770;9.190;2023-07-08T14:14:11;38.00;37.70
5128;DHT22;2582;48.770;9.190;2023-07-08T14:16:42;37.30;39.00
5128;DHT22;2582;48.770;9.190;2023-07-08T14:19:16;36.40;41.00
5128;DHT22;2582;48.770;9.190;2023-07-08T14:21:43;36.20;41.80
5128;DHT22;2582;48.770;9.190;2023-07-08T14:24:11;37.40;41.30
5128;DHT22;2582;48.770;9.190;2023-07-08T14:26:38;38.30;39.10
5128;DHT22;2582;48.770;9.190;2023-07-08T14:29:04;38.90;38.10
5128;DHT22;2582;48.770;9.190;2023-07-08T14:31:29;39.50;37.50
5128;DHT22;2582;48.770;9.190;2023-07-08T14:34:02;39.90;36.90
5128;DHT22;2582;48.770;9.190;2023-07-08T14:36:28;39.90;37.00
5128;DHT22;2582;48.770;9.190;2023-07-08T14:38:54;39.20;37.90
5128;DHT22;2582;48.770;9.190;2023-07-08T14:41:19;38.20;39.30
5128;DHT22;2582;48.770;9.190;2023-07-08T14:43:45;38.80;37.80
5128;DHT22;2582;48.770;9.190;2023-07-08T14:46:10;39.90;37.60
5128;DHT22;2582;48.770;9.190;2023-07-08T14:48:36;40.70;36.30
5128;DHT22;2582;48.770;9.190;2023-07-08T14:51:01;41.30;35.80
5128;DHT22;2582;48.770;9.190;2023-07-08T14:53:27;41.30;34.90
5128;DHT22;2582;48.770;9.190;2023-07-08T14:55:55;40.70;36.60
5128;DHT22;2582;48.770;9.190;2023-07-08T14:58:26;41.10;35.50
5128;DHT22;2582;48.770;9.190;2023-07-08T15:00:58;41.40;34.10
5128;DHT22;2582;48.770;9.190;2023-07-08T15:03:25;40.90;34.50
5128;DHT22;2582;48.770;9.190;2023-07-08T15:05:51;40.60;35.70
5128;DHT22;2582;48.770;9.190;2023-07-08T15:08:17;41.90;34.40
5128;DHT22;2582;48.770;9.190;2023-07-08T15:10:47;42.00;34.30
5128;DHT22;2582;48.770;9.190;2023-07-08T15:13:14;42.20;33.70
5128;DHT22;2582;48.770;9.190;2023-07-08T15:15:40;42.60;33.50
5128;DHT22;2582;48.770;9.190;2023-07-08T15:18:12;43.60;32.40
5128;DHT22;2582;48.770;9.190;2023-07-08T15:20:38;43.50;32.30
5128;DHT22;2582;48.770;9.190;2023-07-08T15:23:03;43.00;33.00
5128;DHT22;2582;48.770;9.190;2023-07-08T15:25:29;42.10;33.50
5128;DHT22;2582;48.770;9.190;2023-07-08T15:27:57;42.60;33.20
5128;DHT22;2582;48.770;9.190;2023-07-08T15:30:27;42.80;33.30
5128;DHT22;2582;48.770;9.190;2023-07-08T15:32:54;42.70;33.40
5128;DHT22;2582;48.770;9.190;2023-07-08T15:35:22;42.30;33.70
5128;DHT22;2582;48.770;9.190;2023-07-08T15:37:49;43.00;33.00
5128;DHT22;2582;48.770;9.190;2023-07-08T15:40:18;43.40;32.70
5128;DHT22;2582;48.770;9.190;2023-07-08T15:42:49;42.80;31.50
5128;DHT22;2582;48.770;9.190;2023-07-08T15:45:34;42.30;32.60
5128;DHT22;2582;48.770;9.190;2023-07-08T15:48:00;42.90;32.50
5128;DHT22;2582;48.770;9.190;2023-07-08T15:50:27;44.10;31.00
5128;DHT22;2582;48.770;9.190;2023-07-08T15:52:54;44.60;30.60
5128;DHT22;2582;48.770;9.190;2023-07-08T15:55:35;44.30;30.70
5128;DHT22;2582;48.770;9.190;2023-07-08T15:58:05;44.30;31.60
5128;DHT22;2582;48.770;9.190;2023-07-08T16:00:33;43.90;32.10
5128;DHT22;2582;48.770;9.190;2023-07-08T16:03:03;43.30;32.00
5128;DHT22;2582;48.770;9.190;2023-07-08T16:05:30;42.20;33.10
5128;DHT22;2582;48.770;9.190;2023-07-08T16:07:59;42.50;33.50
5128;DHT22;2582;48.770;9.190;2023-07-08T16:10:25;43.00;32.90
5128;DHT22;2582;48.770;9.190;2023-07-08T16:12:51;42.30;33.30
5128;DHT22;2582;48.770;9.190;2023-07-08T16:15:30;41.70;33.70
5128;DHT22;2582;48.770;9.190;2023-07-08T16:17:57;42.00;33.90
5128;DHT22;2582;48.770;9.190;2023-07-08T16:20:25;42.20;33.30
5128;DHT22;2582;48.770;9.190;2023-07-08T16:22:51;41.30;33.70
5128;DHT22;2582;48.770;9.190;2023-07-08T16:25:19;41.40;34.00
5128;DHT22;2582;48.770;9.190;2023-07-08T16:27:47;40.50;34.30
5128;DHT22;2582;48.770;9.190;2023-07-08T16:30:17;40.00;35.70
5128;DHT22;2582;48.770;9.190;2023-07-08T16:32:44;39.80;35.30
5128;DHT22;2582;48.770;9.190;2023-07-08T16:35:13;40.00;35.80
5128;DHT22;2582;48.770;9.190;2023-07-08T16:37:39;40.50;35.20
5128;DHT22;2582;48.770;9.190;2023-07-08T16:40:16;41.10;34.50
5128;DHT22;2582;48.770;9.190;2023-07-08T16:42:44;41.30;33.60
5128;DHT22;2582;48.770;9.190;2023-07-08T16:45:11;41.50;33.90
5128;DHT22;2582;48.770;9.190;2023-07-08T16:47:37;42.30;33.00
5128;DHT22;2582;48.770;9.190;2023-07-08T16:50:03;42.40;32.80
5128;DHT22;2582;48.770;9.190;2023-07-08T16:52:30;42.80;32.30
5128;DHT22;2582;48.770;9.190;2023-07-08T16:54:57;42.00;33.40